M I D A S
Marine Information and Data Acquisition System
Tripno 1530 of the Zeeleeuw from 2008-07-31 07:58:34 to 2008-07-31 15:05:41
Back to CruiseResearch ActivitiesStationsMapUnderway DataData graphs

EquipmentUnitsComment
TimeDGPSUTC
LatitudeDGPSDM.mWGS84
LongitudeDGPSDM.mWGS84
HeadingGyrodeg 
SOGDGPSknotsSpeed over ground
COGDGPSdegCourse over ground
DepthEcho soundermeters200 kHz
Missing or incorrect values are displayed as -999
Navigation data collected by the RV Zeeleeuw from 2008-07-31 07:56:53 to 2008-07-31 15:08:53
Time Latitude Longitude Heading SOG COG Depth
2008-07-31 07:57:58 51°13.642 2°55.989 114.6 3.5 296 -999
2008-07-31 07:58:59 51°13.668 2°55.897 118.3 3.8 297 -999
2008-07-31 07:59:59 51°13.698 2°55.816 118.6 3.3 300 -999
2008-07-31 08:00:58 51°13.718 2°55.751 107.3 2.4 292 10.7
2008-07-31 08:01:59 51°13.725 2°55.702 86.8 1.3 275 11.3
2008-07-31 08:02:58 51°13.727 2°55.691 64.5 0.3 11 11.1
2008-07-31 08:03:59 51°13.733 2°55.694 36.5 0.2 330 11.1
2008-07-31 08:04:58 51°13.733 2°55.687 21.2 0.3 263 11.1
2008-07-31 08:05:58 51°13.732 2°55.682 13.1 0.2 257 11.5
2008-07-31 08:06:59 51°13.733 2°55.678 6.1 0.4 327 11.8
2008-07-31 08:07:58 51°13.804 2°55.646 341.2 6.9 337 10.5
2008-07-31 08:08:58 51°13.905 2°55.57 336.3 6 335 10.5
2008-07-31 08:09:58 51°13.997 2°55.498 335.7 6.4 333 10.5
2008-07-31 08:10:58 51°14.097 2°55.424 336.4 6.7 336 10.8
2008-07-31 08:11:58 51°14.193 2°55.338 327.6 6.7 324 10.7
2008-07-31 08:12:59 51°14.28 2°55.221 318.8 6.8 317 10.5
2008-07-31 08:13:58 51°14.354 2°55.083 308.3 7.7 306 11.1
2008-07-31 08:14:58 51°14.457 2°54.894 322.9 10.9 322 10.8
2008-07-31 08:15:58 51°14.625 2°54.738 337.2 11.9 335 9.7
2008-07-31 08:16:58 51°14.811 2°54.634 344.9 11.9 341 9.7
2008-07-31 08:17:57 51°14.999 2°54.563 352 11.7 348 8.8
2008-07-31 08:18:54 51°15.179 2°54.498 351.5 11.7 347 8.7
2008-07-31 08:19:55 51°15.372 2°54.431 353 11.7 348 9.2
2008-07-31 08:20:55 51°15.563 2°54.371 352.9 11.8 349 9.8
2008-07-31 08:21:54 51°15.752 2°54.31 353.2 11.8 348 10.4
2008-07-31 08:22:54 51°15.943 2°54.254 356.5 11.6 352 11
2008-07-31 08:23:55 51°16.137 2°54.213 357.2 11.6 353 11.3
2008-07-31 08:24:55 51°16.313 2°54.136 335.7 10.2 328 11.3
2008-07-31 08:25:54 51°16.427 2°53.96 314.9 9.6 310 11.5
2008-07-31 08:26:55 51°16.542 2°53.783 324.8 9.3 318 11.6
2008-07-31 08:27:55 51°16.657 2°53.618 323 9.2 318 11.6
2008-07-31 08:28:55 51°16.768 2°53.453 322.2 9.2 317 11.5
2008-07-31 08:29:55 51°16.878 2°53.287 322.3 9 317 9.8
2008-07-31 08:30:56 51°16.985 2°53.117 319.9 8.9 315 8.6
2008-07-31 08:31:54 51°17.085 2°52.953 320.3 9 314 9.6
2008-07-31 08:32:55 51°17.191 2°52.78 320.9 9 315 10.3
2008-07-31 08:33:55 51°17.295 2°52.611 320.9 9 314 10.2
2008-07-31 08:34:55 51°17.4 2°52.44 321 9 315 10.7
2008-07-31 08:35:55 51°17.506 2°52.273 321.5 9 316 10.8
2008-07-31 08:36:55 51°17.613 2°52.103 320.8 9 315 10.8
2008-07-31 08:37:55 51°17.718 2°51.935 321.2 8.9 316 10.7
2008-07-31 08:38:55 51°17.841 2°51.821 349.8 8.3 348 10.7
2008-07-31 08:39:55 51°17.98 2°51.824 10.8 8.3 10 10.9
2008-07-31 08:40:54 51°18.103 2°51.913 31.7 8.4 31 11.3
2008-07-31 08:41:55 51°18.219 2°52.045 38.1 8.5 40 11.4
2008-07-31 08:42:55 51°18.322 2°52.238 55.1 10.2 57 11.7
2008-07-31 08:43:55 51°18.404 2°52.496 66.7 11.3 69 11.7
2008-07-31 08:44:55 51°18.469 2°52.779 68 11.4 70 11.6
2008-07-31 08:45:55 51°18.533 2°53.063 70.3 11.4 76 11.7
2008-07-31 08:46:55 51°18.564 2°53.36 82.6 11.4 90 11.8
2008-07-31 08:47:55 51°18.514 2°53.656 106.9 11.7 111 11.5
2008-07-31 08:48:55 51°18.436 2°53.943 110.6 11.8 114 11.2
2008-07-31 08:49:55 51°18.365 2°54.192 111 8.5 116 11
2008-07-31 08:50:55 51°18.31 2°54.378 107.7 7.4 113 10.8
2008-07-31 08:51:55 51°18.266 2°54.558 104.5 7.2 111 10.6
2008-07-31 08:52:54 51°18.229 2°54.736 101.6 6.9 107 10.3
2008-07-31 08:53:55 51°18.214 2°54.814 60 0.7 179 10.3
2008-07-31 08:54:56 51°18.195 2°54.795 46.1 1.6 215 -999
2008-07-31 08:55:57 51°18.173 2°54.771 50.6 1.5 218 10.3
2008-07-31 08:56:58 51°18.168 2°54.765 37.3 0.3 61 5
2008-07-31 08:57:56 51°18.169 2°54.771 37.2 0.2 91 10.4
2008-07-31 08:58:55 51°18.169 2°54.773 29.9 0.1 247 10.4
2008-07-31 08:59:54 51°18.168 2°54.769 20 0.2 250 10.4
2008-07-31 09:00:55 51°18.168 2°54.765 18.8 0.1 335 10.4
2008-07-31 09:01:54 51°18.169 2°54.766 27.9 0.1 26 10.4
2008-07-31 09:02:55 51°18.17 2°54.766 30.8 -999 306 10.4
2008-07-31 09:03:54 51°18.17 2°54.766 30.2 -999 212 10.5
2008-07-31 09:04:55 51°18.169 2°54.765 29.8 -999 242 10.5
2008-07-31 09:05:54 51°18.169 2°54.766 29.8 0.1 130 10.5
2008-07-31 09:06:55 51°18.173 2°54.77 28.7 0.5 34 10.5
2008-07-31 09:07:55 51°18.182 2°54.78 28.5 0.8 43 10.6
2008-07-31 09:08:54 51°18.193 2°54.797 34.7 1 43 10.7
2008-07-31 09:09:55 51°18.204 2°54.812 31.7 0.8 40 10.6
2008-07-31 09:10:54 51°18.213 2°54.824 25.1 0.7 31 10.6
2008-07-31 09:11:55 51°18.237 2°54.824 348.2 2.4 343 10.8
2008-07-31 09:12:55 51°18.302 2°54.798 348.3 5.8 346 10.9
2008-07-31 09:13:54 51°18.411 2°54.75 349 7.4 348 11.2
2008-07-31 09:14:55 51°18.531 2°54.704 348.3 6.1 347 11.5
2008-07-31 09:15:54 51°18.6 2°54.681 349 3.4 346 11.7
2008-07-31 09:16:55 51°18.647 2°54.665 352.3 2.5 349 11.9
2008-07-31 09:17:54 51°18.682 2°54.654 352 2 347 11.9
2008-07-31 09:18:55 51°18.711 2°54.641 351.4 1.7 345 12
2008-07-31 09:19:54 51°18.736 2°54.63 349.5 1.6 344 12.1
2008-07-31 09:20:55 51°18.759 2°54.618 349.7 1.4 343 12.2
2008-07-31 09:21:54 51°18.78 2°54.608 351.2 1.3 345 12.3
2008-07-31 09:22:55 51°18.8 2°54.6 350.6 1.3 346 12.3
2008-07-31 09:23:55 51°18.82 2°54.591 350.9 1.2 345 12.4
2008-07-31 09:24:55 51°18.839 2°54.584 350.5 1.2 347 12.4
2008-07-31 09:25:55 51°18.848 2°54.578 351.7 0.1 283 12.5
2008-07-31 09:26:55 51°18.843 2°54.576 345.3 0.6 177 12.5
2008-07-31 09:27:55 51°18.825 2°54.585 331.6 1.2 155 12.5
2008-07-31 09:28:55 51°18.814 2°54.596 329.6 0.2 90 12.5
2008-07-31 09:29:54 51°18.82 2°54.595 343 0.3 348 12.5
2008-07-31 09:30:55 51°18.824 2°54.593 344.3 0.3 347 12.6
2008-07-31 09:31:55 51°18.828 2°54.592 344.6 0.2 347 12.6
2008-07-31 09:32:55 51°18.83 2°54.593 344.5 0.1 18 12.7
2008-07-31 09:33:54 51°18.831 2°54.594 344.3 -999 129 12.7
2008-07-31 09:34:55 51°18.83 2°54.595 342.8 0.1 135 12.7
2008-07-31 09:35:54 51°18.828 2°54.597 339.5 0.1 122 12.7
2008-07-31 09:36:55 51°18.827 2°54.6 334.7 0.1 110 12.8
2008-07-31 09:37:55 51°18.826 2°54.602 329.3 0.1 141 12.8
2008-07-31 09:38:55 51°18.825 2°54.604 324.3 0.1 122 12.8
2008-07-31 09:39:55 51°18.825 2°54.606 319.3 0.1 30 12.8
2008-07-31 09:40:54 51°18.826 2°54.606 316.4 -999 23 12.8
2008-07-31 09:41:55 51°18.828 2°54.606 315.1 0.1 349 12.9
2008-07-31 09:42:54 51°18.83 2°54.606 315.7 0.2 355 12.9
2008-07-31 09:43:55 51°18.832 2°54.605 316.4 0.2 4 12.9
2008-07-31 09:44:54 51°18.835 2°54.605 314.9 0.2 8 12.9
2008-07-31 09:45:55 51°18.837 2°54.606 312.5 0.2 18 13
2008-07-31 09:46:54 51°18.839 2°54.607 309 0.1 27 12.9
2008-07-31 09:47:55 51°18.841 2°54.608 304.2 -999 57 13
2008-07-31 09:48:55 51°18.842 2°54.608 299.3 0.1 15 13.1
2008-07-31 09:49:54 51°18.844 2°54.608 294.6 0.1 -999 13.1
2008-07-31 09:50:55 51°18.845 2°54.608 291.7 0.1 356 13.1
2008-07-31 09:51:54 51°18.847 2°54.607 291 0.1 353 13.1
2008-07-31 09:52:55 51°18.849 2°54.607 290.8 0.1 353 13.2
2008-07-31 09:53:54 51°18.851 2°54.607 289.7 0.1 359 13.2
2008-07-31 09:54:54 51°18.852 2°54.608 286.8 0.1 12 13.1
2008-07-31 09:55:55 51°18.854 2°54.608 283.4 0.1 -999 13.1
2008-07-31 09:56:55 51°18.855 2°54.607 281 0.1 338 13.2
2008-07-31 09:57:55 51°18.857 2°54.607 279.5 0.1 350 13.2
2008-07-31 09:58:54 51°18.858 2°54.606 277.2 -999 308 13.2
2008-07-31 09:59:55 51°18.859 2°54.605 274.4 -999 281 13.2
2008-07-31 10:00:54 51°18.86 2°54.605 270.7 0.1 354 13.3
2008-07-31 10:01:55 51°18.861 2°54.604 266.9 -999 323 13.3
2008-07-31 10:02:55 51°18.861 2°54.604 263.6 -999 2 13.3
2008-07-31 10:03:55 51°18.861 2°54.603 259.3 -999 28 13.3
2008-07-31 10:04:55 51°18.861 2°54.604 256.5 -999 118 13.3
2008-07-31 10:05:55 51°18.861 2°54.604 255.2 -999 170 13.4
2008-07-31 10:06:55 51°18.862 2°54.604 250.7 -999 137 13.3
2008-07-31 10:07:54 51°18.862 2°54.604 247.5 -999 78 13.4
2008-07-31 10:08:55 51°18.862 2°54.605 242.8 -999 55 13.4
2008-07-31 10:09:54 51°18.862 2°54.608 236.9 0.1 85 13.5
2008-07-31 10:10:55 51°18.862 2°54.611 232.3 0.1 109 13.5
2008-07-31 10:11:55 51°18.862 2°54.615 229.5 0.1 112 13.5
2008-07-31 10:12:55 51°18.86 2°54.617 228.5 0.1 152 13.6
2008-07-31 10:13:55 51°18.858 2°54.618 228 0.1 143 13.5
2008-07-31 10:14:55 51°18.857 2°54.619 229.2 0.1 159 13.6
2008-07-31 10:15:55 51°18.857 2°54.619 230.5 -999 132 13.5
2008-07-31 10:16:55 51°18.856 2°54.619 231.9 -999 351 13.5
2008-07-31 10:17:55 51°18.857 2°54.62 233 -999 326 13.6
2008-07-31 10:18:54 51°18.857 2°54.62 234.2 -999 23 13.6
2008-07-31 10:19:55 51°18.858 2°54.619 234.7 0.1 347 13.6
2008-07-31 10:20:55 51°18.858 2°54.619 233.4 -999 325 13.7
2008-07-31 10:21:55 51°18.858 2°54.619 232.9 -999 315 13.6
2008-07-31 10:22:55 51°18.858 2°54.618 232.2 -999 86 13.7
2008-07-31 10:23:54 51°18.858 2°54.619 231.4 -999 347 13.6
2008-07-31 10:24:55 51°18.858 2°54.62 231.4 0.1 139 13.7
2008-07-31 10:25:55 51°18.858 2°54.619 232.1 -999 342 13.7
2008-07-31 10:26:55 51°18.859 2°54.619 231.5 0.1 348 13.7
2008-07-31 10:27:55 51°18.859 2°54.619 231.2 0.1 338 13.7
2008-07-31 10:28:55 51°18.86 2°54.619 230.9 -999 310 13.8
2008-07-31 10:29:55 51°18.86 2°54.619 229.3 0.1 144 13.7
2008-07-31 10:30:55 51°18.859 2°54.619 228.5 -999 141 13.8
2008-07-31 10:31:55 51°18.859 2°54.62 227.8 0.1 139 13.8
2008-07-31 10:32:55 51°18.858 2°54.621 227.6 0.1 128 13.8
2008-07-31 10:33:55 51°18.857 2°54.621 228.3 -999 65 13.8
2008-07-31 10:34:55 51°18.857 2°54.621 228.9 -999 275 13.8
2008-07-31 10:35:55 51°18.857 2°54.621 229 -999 100 13.8
2008-07-31 10:36:55 51°18.857 2°54.621 228.9 0.1 127 13.8
2008-07-31 10:37:55 51°18.857 2°54.621 228.9 -999 211 13.8
2008-07-31 10:38:55 51°18.857 2°54.621 228.7 -999 169 13.8
2008-07-31 10:39:54 51°18.857 2°54.62 228.9 -999 350 13.8
2008-07-31 10:40:55 51°18.858 2°54.62 229.3 0.1 339 13.8
2008-07-31 10:41:55 51°18.858 2°54.62 228.5 -999 46 13.9
2008-07-31 10:42:54 51°18.858 2°54.621 227.1 -999 151 13.8
2008-07-31 10:43:54 51°18.857 2°54.621 226.4 -999 176 13.8
2008-07-31 10:44:55 51°18.857 2°54.622 227.2 -999 145 13.8
2008-07-31 10:45:54 51°18.856 2°54.623 226.3 0.1 144 13.8
2008-07-31 10:46:55 51°18.855 2°54.622 226.1 -999 223 13.8
2008-07-31 10:47:55 51°18.855 2°54.622 226.4 0.1 128 13.8
2008-07-31 10:48:55 51°18.855 2°54.622 227.9 -999 98 13.8
2008-07-31 10:49:55 51°18.855 2°54.623 228.4 0.1 317 13.8
2008-07-31 10:50:55 51°18.855 2°54.622 228.8 0.1 306 13.8
2008-07-31 10:51:55 51°18.856 2°54.623 228.5 0.1 353 13.8
2008-07-31 10:52:55 51°18.857 2°54.623 227.7 0.1 7 13.8
2008-07-31 10:53:55 51°18.857 2°54.623 227.2 0.1 6 13.8
2008-07-31 10:54:55 51°18.857 2°54.623 225.9 -999 161 13.8
2008-07-31 10:55:55 51°18.857 2°54.624 225.4 -999 147 13.8
2008-07-31 10:56:55 51°18.852 2°54.624 224.8 0.1 158 13.8
2008-07-31 10:57:55 51°18.855 2°54.624 224.3 -999 163 13.9
2008-07-31 10:58:55 51°18.855 2°54.624 224.7 -999 71 13.8
2008-07-31 10:59:55 51°18.855 2°54.624 224.9 -999 47 13.8
2008-07-31 11:00:55 51°18.855 2°54.624 224.2 -999 93 13.8
2008-07-31 11:01:55 51°18.854 2°54.625 223.8 -999 33 13.9
2008-07-31 11:02:55 51°18.854 2°54.625 224.4 -999 330 13.8
2008-07-31 11:03:55 51°18.855 2°54.625 224.3 -999 44 13.9
2008-07-31 11:04:55 51°18.855 2°54.625 224.4 -999 301 13.8
2008-07-31 11:05:55 51°18.854 2°54.625 222.9 -999 161 13.8
2008-07-31 11:06:54 51°18.853 2°54.626 222.5 0.1 145 13.9
2008-07-31 11:07:55 51°18.852 2°54.627 222.5 -999 149 13.9
2008-07-31 11:08:55 51°18.852 2°54.627 224.5 -999 324 13.8
2008-07-31 11:09:55 51°18.853 2°54.627 224.4 0.1 99 13.8
2008-07-31 11:10:55 51°18.852 2°54.627 224.6 -999 267 13.9
2008-07-31 11:11:55 51°18.852 2°54.627 224.9 -999 5 13.9
2008-07-31 11:12:55 51°18.852 2°54.627 224.1 -999 294 13.9
2008-07-31 11:13:55 51°18.852 2°54.627 224.9 0.1 273 13.9
2008-07-31 11:14:55 51°18.852 2°54.627 224.5 -999 80 13.9
2008-07-31 11:15:55 51°18.852 2°54.627 225 -999 263 13.8
2008-07-31 11:16:55 51°18.852 2°54.627 225.3 0.1 9 13.8
2008-07-31 11:17:55 51°18.853 2°54.627 225.1 -999 302 13.9
2008-07-31 11:18:55 51°18.853 2°54.626 224.7 -999 331 13.9
2008-07-31 11:19:55 51°18.854 2°54.626 224.2 -999 35 13.8
2008-07-31 11:20:55 51°18.853 2°54.627 222.2 -999 195 13.8
2008-07-31 11:21:55 51°18.852 2°54.628 222.7 -999 225 13.8
2008-07-31 11:22:55 51°18.852 2°54.627 223.1 -999 61 13.8
2008-07-31 11:23:55 51°18.852 2°54.627 222.6 -999 300 13.8
2008-07-31 11:24:54 51°18.852 2°54.627 223.6 -999 102 13.9
2008-07-31 11:25:55 51°18.852 2°54.627 222.1 -999 88 13.9
2008-07-31 11:26:55 51°18.852 2°54.627 222.7 -999 269 13.8
2008-07-31 11:27:55 51°18.852 2°54.628 223 0.1 106 13.8
2008-07-31 11:28:55 51°18.852 2°54.628 223.1 0.1 307 13.9
2008-07-31 11:29:55 51°18.852 2°54.627 224.1 0.1 338 13.9
2008-07-31 11:30:55 51°18.853 2°54.627 223.5 0.1 334 13.9
2008-07-31 11:31:55 51°18.853 2°54.627 221.7 -999 292 13.8
2008-07-31 11:32:55 51°18.854 2°54.624 222 -999 260 13.8
2008-07-31 11:33:55 51°18.855 2°54.624 220.5 0.1 139 13.9
2008-07-31 11:34:55 51°18.853 2°54.625 220.5 -999 275 13.8
2008-07-31 11:35:55 51°18.852 2°54.625 221.7 -999 199 13.8
2008-07-31 11:36:55 51°18.855 2°54.624 221.5 -999 100 13.8
2008-07-31 11:37:55 51°18.855 2°54.625 220.9 -999 43 13.8
2008-07-31 11:38:55 51°18.855 2°54.625 220.4 -999 82 13.8
2008-07-31 11:39:55 51°18.854 2°54.624 221.1 0.1 321 13.8
2008-07-31 11:40:55 51°18.854 2°54.625 220.8 -999 30 13.8
2008-07-31 11:41:55 51°18.855 2°54.625 219.4 -999 6 13.8
2008-07-31 11:42:55 51°18.855 2°54.625 220.4 0.1 354 13.8
2008-07-31 11:43:55 51°18.854 2°54.626 219.7 -999 134 13.8
2008-07-31 11:44:55 51°18.853 2°54.625 218 0.1 162 13.8
2008-07-31 11:45:55 51°18.854 2°54.625 218.9 -999 323 13.7
2008-07-31 11:46:55 51°18.854 2°54.626 219.6 -999 97 13.8
2008-07-31 11:47:55 51°18.854 2°54.626 219.1 -999 339 13.8
2008-07-31 11:48:55 51°18.856 2°54.625 220.4 -999 326 13.8
2008-07-31 11:49:55 51°18.855 2°54.624 219.8 0.1 314 13.8
2008-07-31 11:50:55 51°18.853 2°54.625 218.4 -999 199 13.7
2008-07-31 11:51:55 51°18.853 2°54.625 218.2 -999 297 13.7
2008-07-31 11:52:55 51°18.853 2°54.626 217.8 -999 52 13.7
2008-07-31 11:53:55 51°18.853 2°54.625 218 0.1 132 13.8
2008-07-31 11:54:55 51°18.853 2°54.626 217.9 -999 205 13.7
2008-07-31 11:55:55 51°18.852 2°54.625 219.8 -999 153 13.7
2008-07-31 11:56:55 51°18.853 2°54.625 219.8 -999 2 13.7
2008-07-31 11:57:55 51°18.853 2°54.625 218.1 -999 79 13.8
2008-07-31 11:58:55 51°18.853 2°54.625 218.4 -999 126 13.7
2008-07-31 11:59:55 51°18.852 2°54.625 218.7 -999 193 13.7
2008-07-31 12:00:55 51°18.853 2°54.625 218.4 -999 337 13.8
2008-07-31 12:01:55 51°18.853 2°54.625 217.7 -999 109 13.7
2008-07-31 12:02:55 51°18.853 2°54.625 217.6 0.1 154 13.7
2008-07-31 12:03:55 51°18.852 2°54.625 216.6 0.1 172 13.7
2008-07-31 12:04:55 51°18.852 2°54.625 217.3 -999 295 13.7
2008-07-31 12:05:55 51°18.852 2°54.626 217.4 -999 287 13.7
2008-07-31 12:06:55 51°18.852 2°54.625 217.4 -999 264 13.7
2008-07-31 12:07:55 51°18.852 2°54.625 217.1 0.1 326 13.7
2008-07-31 12:08:55 51°18.852 2°54.625 216.4 -999 284 13.7
2008-07-31 12:09:55 51°18.852 2°54.626 216.4 -999 189 13.6
2008-07-31 12:10:55 51°18.852 2°54.626 216.8 -999 141 13.7
2008-07-31 12:11:55 51°18.853 2°54.625 217.5 -999 176 13.6
2008-07-31 12:12:55 51°18.852 2°54.625 217 -999 287 13.7
2008-07-31 12:13:55 51°18.852 2°54.625 217.1 0.1 140 13.6
2008-07-31 12:14:55 51°18.852 2°54.625 217.2 0.1 298 13.6
2008-07-31 12:15:55 51°18.852 2°54.625 217.9 0.1 160 13.6
2008-07-31 12:16:55 51°18.852 2°54.625 217 -999 305 13.6
2008-07-31 12:17:55 51°18.853 2°54.626 216.9 -999 297 13.6
2008-07-31 12:18:55 51°18.853 2°54.625 218.4 0.1 330 13.6
2008-07-31 12:19:55 51°18.854 2°54.625 218.1 0.1 339 13.6
2008-07-31 12:20:55 51°18.854 2°54.625 217 0.1 310 13.6
2008-07-31 12:21:55 51°18.854 2°54.624 216.7 -999 171 13.6
2008-07-31 12:22:55 51°18.854 2°54.624 216.1 0.1 134 13.6
2008-07-31 12:23:55 51°18.853 2°54.625 213.8 0.1 136 13.6
2008-07-31 12:24:55 51°18.853 2°54.625 214.3 0.1 147 13.5
2008-07-31 12:25:55 51°18.852 2°54.624 216 -999 77 13.5
2008-07-31 12:26:55 51°18.852 2°54.624 217.2 -999 322 13.5
2008-07-31 12:27:55 51°18.852 2°54.625 216.9 -999 61 13.5
2008-07-31 12:28:55 51°18.853 2°54.625 218.4 -999 353 13.6
2008-07-31 12:29:55 51°18.853 2°54.624 218.4 -999 150 13.5
2008-07-31 12:30:55 51°18.854 2°54.624 217.6 -999 146 13.5
2008-07-31 12:31:55 51°18.854 2°54.624 215.6 -999 283 13.5
2008-07-31 12:32:55 51°18.853 2°54.624 213.5 0.1 160 13.5
2008-07-31 12:33:55 51°18.852 2°54.624 212.6 0.1 153 13.5
2008-07-31 12:34:55 51°18.851 2°54.624 213.7 -999 140 13.5
2008-07-31 12:35:55 51°18.851 2°54.624 214.7 -999 116 13.5
2008-07-31 12:36:55 51°18.852 2°54.624 215.5 -999 160 13.5
2008-07-31 12:37:55 51°18.852 2°54.624 215.1 -999 355 13.4
2008-07-31 12:38:55 51°18.852 2°54.624 215.5 -999 8 13.4
2008-07-31 12:39:55 51°18.852 2°54.624 215 -999 62 13.5
2008-07-31 12:40:55 51°18.852 2°54.624 213.1 -999 110 13.4
2008-07-31 12:41:55 51°18.852 2°54.624 213 -999 306 13.5
2008-07-31 12:42:55 51°18.852 2°54.624 213.3 -999 83 13.4
2008-07-31 12:43:55 51°18.852 2°54.624 213.3 -999 112 13.4
2008-07-31 12:44:55 51°18.852 2°54.623 212.8 0.1 328 13.4
2008-07-31 12:45:55 51°18.853 2°54.623 212 -999 359 13.4
2008-07-31 12:46:55 51°18.853 2°54.623 211.9 0.1 321 13.4
2008-07-31 12:47:55 51°18.853 2°54.624 212.6 -999 330 13.4
2008-07-31 12:48:55 51°18.853 2°54.624 211.8 -999 20 13.3
2008-07-31 12:49:55 51°18.853 2°54.624 211.8 -999 84 13.4
2008-07-31 12:50:55 51°18.852 2°54.625 212.3 -999 293 13.3
2008-07-31 12:51:55 51°18.852 2°54.624 212.8 -999 141 13.3
2008-07-31 12:52:55 51°18.852 2°54.624 212.5 -999 134 13.3
2008-07-31 12:53:55 51°18.852 2°54.624 212.5 -999 135 13.3
2008-07-31 12:54:55 51°18.852 2°54.624 210.4 -999 209 13.3
2008-07-31 12:55:55 51°18.852 2°54.623 210.4 -999 258 13.3
2008-07-31 12:56:55 51°18.852 2°54.623 208.9 -999 321 13.3
2008-07-31 12:57:55 51°18.852 2°54.623 209.4 -999 52 13.3
2008-07-31 12:58:55 51°18.852 2°54.624 210.4 -999 97 13.3
2008-07-31 12:59:55 51°18.852 2°54.623 209.6 -999 43 13.2
2008-07-31 13:00:55 51°18.853 2°54.623 208.9 -999 101 13.2
2008-07-31 13:01:55 51°18.852 2°54.623 208.2 -999 259 13.2
2008-07-31 13:02:55 51°18.852 2°54.622 207.6 -999 187 13.2
2008-07-31 13:03:55 51°18.851 2°54.622 206 -999 275 13.2
2008-07-31 13:04:55 51°18.851 2°54.622 206 -999 29 13.2
2008-07-31 13:05:55 51°18.851 2°54.622 205.5 0.1 310 13.2
2008-07-31 13:06:55 51°18.852 2°54.622 205.2 0.1 331 13.2
2008-07-31 13:07:55 51°18.852 2°54.623 204.5 -999 352 13.1
2008-07-31 13:08:55 51°18.852 2°54.623 204.3 -999 84 13.1
2008-07-31 13:09:55 51°18.853 2°54.623 205.4 -999 267 13.1
2008-07-31 13:10:55 51°18.853 2°54.622 206.2 0.1 123 13.1
2008-07-31 13:11:55 51°18.853 2°54.623 204.6 -999 254 13.2
2008-07-31 13:12:55 51°18.852 2°54.622 204.6 -999 280 13.1
2008-07-31 13:13:55 51°18.852 2°54.621 204.1 -999 274 13.1
2008-07-31 13:14:55 51°18.851 2°54.621 202.2 -999 264 13.1
2008-07-31 13:15:55 51°18.851 2°54.621 200.3 -999 188 13.1
2008-07-31 13:16:55 51°18.851 2°54.621 198.9 -999 19 13.1
2008-07-31 13:17:55 51°18.851 2°54.621 198.9 -999 45 13.1
2008-07-31 13:18:55 51°18.852 2°54.622 198.8 0.1 80 13
2008-07-31 13:19:55 51°18.852 2°54.622 198.8 0.1 98 13
2008-07-31 13:20:55 51°18.852 2°54.622 199.1 0.1 66 13
2008-07-31 13:21:55 51°18.852 2°54.623 198.1 -999 167 13
2008-07-31 13:22:55 51°18.852 2°54.623 198.8 -999 106 13
2008-07-31 13:23:55 51°18.852 2°54.623 201.8 0.1 255 13
2008-07-31 13:24:55 51°18.851 2°54.622 206.8 0.1 273 13
2008-07-31 13:25:55 51°18.852 2°54.621 210.1 0.1 301 12.9
2008-07-31 13:26:55 51°18.852 2°54.619 208 0.1 269 12.9
2008-07-31 13:27:55 51°18.852 2°54.618 202.9 -999 206 12.9
2008-07-31 13:28:55 51°18.851 2°54.618 197.1 -999 193 12.9
2008-07-31 13:29:55 51°18.852 2°54.618 193.7 0.1 20 12.9
2008-07-31 13:30:55 51°18.853 2°54.619 191.6 0.1 11 12.8
2008-07-31 13:31:55 51°18.854 2°54.619 190 0.1 359 12.9
2008-07-31 13:32:55 51°18.855 2°54.619 189.2 0.1 319 12.9
2008-07-31 13:33:55 51°18.856 2°54.619 188.1 -999 340 12.8
2008-07-31 13:34:55 51°18.855 2°54.619 186.4 -999 150 12.8
2008-07-31 13:35:55 51°18.855 2°54.619 186.4 -999 265 12.8
2008-07-31 13:36:55 51°18.856 2°54.619 186.1 0.1 36 12.8
2008-07-31 13:37:55 51°18.856 2°54.62 187.8 -999 337 12.8
2008-07-31 13:38:55 51°18.856 2°54.62 190.8 -999 125 12.8
2008-07-31 13:39:55 51°18.856 2°54.621 189.6 0.1 131 12.8
2008-07-31 13:40:55 51°18.856 2°54.621 192.2 -999 134 12.7
2008-07-31 13:41:55 51°18.855 2°54.621 194.2 -999 295 12.7
2008-07-31 13:42:55 51°18.854 2°54.621 196.4 -999 252 12.7
2008-07-31 13:43:55 51°18.854 2°54.622 197.3 -999 330 12.7
2008-07-31 13:44:55 51°18.854 2°54.621 196.5 -999 36 12.7
2008-07-31 13:45:55 51°18.855 2°54.621 194.9 -999 348 12.7
2008-07-31 13:46:55 51°18.855 2°54.621 193.4 -999 282 12.7
2008-07-31 13:47:55 51°18.856 2°54.62 192.2 -999 355 12.7
2008-07-31 13:48:55 51°18.856 2°54.62 191 -999 222 12.7
2008-07-31 13:49:55 51°18.856 2°54.62 189.7 -999 280 12.6
2008-07-31 13:50:55 51°18.857 2°54.622 189.3 -999 19 12.6
2008-07-31 13:51:55 51°18.857 2°54.622 189.3 -999 301 12.6
2008-07-31 13:52:56 51°18.857 2°54.621 189 -999 325 12.6
2008-07-31 13:53:55 51°18.857 2°54.621 188.9 -999 275 12.5
2008-07-31 13:54:55 51°18.857 2°54.621 188.9 -999 3 12.6
2008-07-31 13:55:55 51°18.857 2°54.62 187.3 -999 227 12.5
2008-07-31 13:56:55 51°18.857 2°54.62 185.8 -999 150 12.5
2008-07-31 13:57:55 51°18.857 2°54.619 185 0.1 288 12.5
2008-07-31 13:58:55 51°18.857 2°54.62 184.3 -999 70 12.4
2008-07-31 13:59:55 51°18.857 2°54.619 184 0.1 313 12.5
2008-07-31 14:00:55 51°18.858 2°54.618 183.5 -999 345 12.5
2008-07-31 14:01:55 51°18.858 2°54.618 182.2 0.1 316 12.4
2008-07-31 14:02:55 51°18.858 2°54.618 180.2 -999 318 12.4
2008-07-31 14:03:55 51°18.858 2°54.617 178.7 -999 108 12.4
2008-07-31 14:04:55 51°18.858 2°54.616 177.5 -999 1 12.4
2008-07-31 14:05:56 51°18.858 2°54.616 176.3 -999 343 12.4
2008-07-31 14:06:55 51°18.853 2°54.615 175.4 0.6 190 12.3
2008-07-31 14:07:55 51°18.848 2°54.608 191 0.3 279 12.4
2008-07-31 14:08:55 51°18.851 2°54.597 211.1 0.6 304 12.4
2008-07-31 14:09:55 51°18.857 2°54.586 229.3 0.6 323 12.4
2008-07-31 14:10:55 51°18.863 2°54.578 236 0.5 310 12.3
2008-07-31 14:11:55 51°18.866 2°54.566 235.1 1.1 254 12.3
2008-07-31 14:12:55 51°18.834 2°54.558 162.6 2.8 153 12.3
2008-07-31 14:13:55 51°18.803 2°54.639 114.5 4.2 108 12.2
2008-07-31 14:14:55 51°18.792 2°54.725 103.8 2.8 97 12
2008-07-31 14:15:55 51°18.789 2°54.788 103.7 2.2 95 12.1
2008-07-31 14:16:54 51°18.787 2°54.839 104.3 1.8 92 11.9
2008-07-31 14:17:55 51°18.784 2°54.883 108.9 1.5 95 11.9
2008-07-31 14:18:54 51°18.78 2°54.92 112.3 1.3 101 11.9
2008-07-31 14:19:55 51°18.776 2°54.954 112 1.2 102 11.9
2008-07-31 14:20:55 51°18.773 2°54.986 109.8 1.2 95 11.9
2008-07-31 14:21:55 51°18.771 2°55.017 107.6 1.1 94 11.9
2008-07-31 14:22:55 51°18.77 2°55.047 107.5 1.1 91 11.8
2008-07-31 14:23:55 51°18.769 2°55.077 108.8 1.1 94 11.8
2008-07-31 14:24:56 51°18.767 2°55.106 111.6 1 99 11.6
2008-07-31 14:25:55 51°18.767 2°55.121 114.2 0.5 90 11.6
2008-07-31 14:26:55 51°18.767 2°55.134 115.4 0.5 92 11.5
2008-07-31 14:27:55 51°18.766 2°55.146 115.8 0.4 96 11.5
2008-07-31 14:28:55 51°18.766 2°55.155 114.5 0.3 80 11.5
2008-07-31 14:29:55 51°18.767 2°55.161 112.4 0.2 67 11.4
2008-07-31 14:30:55 51°18.769 2°55.166 112 0.2 55 11.5
2008-07-31 14:31:54 51°18.771 2°55.17 109.7 0.3 64 11.4
2008-07-31 14:32:55 51°18.794 2°55.224 43.1 4.2 32 11.6
2008-07-31 14:33:56 51°18.862 2°55.178 296.8 5.3 292 11.5
2008-07-31 14:34:55 51°18.808 2°55.065 210.4 8.5 215 11.6
2008-07-31 14:35:55 51°18.671 2°54.863 225.2 11.9 226 11.2
2008-07-31 14:36:55 51°18.536 2°54.626 226.6 12.1 227 11.1
2008-07-31 14:37:56 51°18.392 2°54.396 220.9 12 221 10.9
2008-07-31 14:38:55 51°18.238 2°54.206 213.4 11.9 213 10.8
2008-07-31 14:39:55 51°18.073 2°54.03 211.8 11.8 212 10.6
2008-07-31 14:40:55 51°17.913 2°53.842 220.4 12 221 10.4
2008-07-31 14:41:55 51°17.761 2°53.648 208.2 11.7 207 10.3
2008-07-31 14:42:56 51°17.592 2°53.482 211.6 11.7 209 10
2008-07-31 14:43:55 51°17.419 2°53.344 204.6 11.8 205 9.7
2008-07-31 14:44:55 51°17.238 2°53.23 200.2 11.6 200 9.5
2008-07-31 14:45:55 51°17.055 2°53.134 196.6 11.6 196 9.1
2008-07-31 14:46:55 51°16.865 2°53.071 190.5 11.7 190 9.1
2008-07-31 14:47:55 51°16.67 2°53.015 190.8 11.9 189 11.8
2008-07-31 14:48:55 51°16.473 2°53.035 168.2 11.9 167 12.2
2008-07-31 14:49:55 51°16.282 2°53.127 161.3 12 160 12.1
2008-07-31 14:50:55 51°16.095 2°53.237 159.3 12 156 12
2008-07-31 14:51:55 51°15.915 2°53.374 156 12 155 11.8
2008-07-31 14:52:55 51°15.734 2°53.508 155.1 12 154 11.4
2008-07-31 14:53:56 51°15.549 2°53.643 153.4 11.7 154 10.9
2008-07-31 14:54:55 51°15.384 2°53.772 154.1 11.2 155 10.5
2008-07-31 14:55:56 51°15.216 2°53.902 152.1 10.6 152 9.8
2008-07-31 14:56:55 51°15.126 2°54.041 127.6 7.1 127 9.8
2008-07-31 14:57:56 51°15.049 2°54.2 129.2 7.6 129 9.3
2008-07-31 14:58:55 51°14.966 2°54.348 134.3 7.7 135 9.3
2008-07-31 14:59:55 51°14.873 2°54.483 138.5 7.2 140 10
2008-07-31 15:00:55 51°14.783 2°54.604 137.7 6.3 141 10.1
2008-07-31 15:01:55 51°14.714 2°54.692 137.8 4.9 142 10.1
2008-07-31 15:02:55 51°14.648 2°54.777 142.7 5.1 145 10.1
2008-07-31 15:03:55 51°14.544 2°54.903 139.8 9.6 143 10.1
2008-07-31 15:04:55 51°14.419 2°55.065 138.7 8.8 140 10.1
2008-07-31 15:05:55 51°14.329 2°55.187 140 7.6 140 10.1
2008-07-31 15:06:56 51°14.218 2°55.328 144.3 8.6 145 -999
2008-07-31 15:07:58 51°14.113 2°55.417 154.2 6.1 155 -999